sensor_id;sensor_type;location;lat;lon;timestamp;temperature;humidity
75799;DHT22;70933;44.692;37.776;2023-09-12T00:00:16;25.86;39.07
75799;DHT22;70933;44.692;37.776;2023-09-12T00:01:18;25.84;39.13
75799;DHT22;70933;44.692;37.776;2023-09-12T00:02:20;25.87;39.10
75799;DHT22;70933;44.692;37.776;2023-09-12T00:03:23;25.88;39.04
75799;DHT22;70933;44.692;37.776;2023-09-12T00:04:25;25.89;39.06
75799;DHT22;70933;44.692;37.776;2023-09-12T00:05:26;25.89;39.09
75799;DHT22;70933;44.692;37.776;2023-09-12T00:06:28;25.91;39.02
75799;DHT22;70933;44.692;37.776;2023-09-12T00:07:30;25.91;38.96
75799;DHT22;70933;44.692;37.776;2023-09-12T00:08:31;25.93;39.03
75799;DHT22;70933;44.692;37.776;2023-09-12T00:09:33;25.93;39.14
75799;DHT22;70933;44.692;37.776;2023-09-12T00:10:34;25.91;39.08
75799;DHT22;70933;44.692;37.776;2023-09-12T00:11:36;25.92;39.15
75799;DHT22;70933;44.692;37.776;2023-09-12T00:12:37;25.90;39.14
75799;DHT22;70933;44.692;37.776;2023-09-12T00:13:40;25.90;39.05
75799;DHT22;70933;44.692;37.776;2023-09-12T00:14:42;25.91;39.03
75799;DHT22;70933;44.692;37.776;2023-09-12T00:15:44;25.91;39.07
75799;DHT22;70933;44.692;37.776;2023-09-12T00:16:45;25.90;39.06
75799;DHT22;70933;44.692;37.776;2023-09-12T00:17:47;25.91;39.15
75799;DHT22;70933;44.692;37.776;2023-09-12T00:18:50;25.91;39.06
75799;DHT22;70933;44.692;37.776;2023-09-12T00:19:52;25.90;39.13
75799;DHT22;70933;44.692;37.776;2023-09-12T00:20:53;25.87;39.54
75799;DHT22;70933;44.692;37.776;2023-09-12T00:21:55;25.86;39.62
75799;DHT22;70933;44.692;37.776;2023-09-12T00:22:57;25.82;39.67
75799;DHT22;70933;44.692;37.776;2023-09-12T00:23:58;25.83;39.59
75799;DHT22;70933;44.692;37.776;2023-09-12T00:25:00;25.82;39.62
75799;DHT22;70933;44.692;37.776;2023-09-12T00:26:02;25.81;39.66
75799;DHT22;70933;44.692;37.776;2023-09-12T00:27:03;25.82;39.63
75799;DHT22;70933;44.692;37.776;2023-09-12T00:28:06;25.82;39.57
75799;DHT22;70933;44.692;37.776;2023-09-12T00:29:07;25.82;39.65
75799;DHT22;70933;44.692;37.776;2023-09-12T00:30:09;25.83;39.56
75799;DHT22;70933;44.692;37.776;2023-09-12T00:31:11;25.81;39.61
75799;DHT22;70933;44.692;37.776;2023-09-12T00:32:12;25.81;39.59
75799;DHT22;70933;44.692;37.776;2023-09-12T00:33:14;25.81;39.62
75799;DHT22;70933;44.692;37.776;2023-09-12T00:34:16;25.82;39.57
75799;DHT22;70933;44.692;37.776;2023-09-12T00:35:18;25.82;39.52
75799;DHT22;70933;44.692;37.776;2023-09-12T00:36:20;25.82;39.62
75799;DHT22;70933;44.692;37.776;2023-09-12T00:37:21;25.81;39.67
75799;DHT22;70933;44.692;37.776;2023-09-12T00:38:23;25.80;39.72
75799;DHT22;70933;44.692;37.776;2023-09-12T00:39:24;25.79;39.65
75799;DHT22;70933;44.692;37.776;2023-09-12T00:40:26;25.80;39.61
75799;DHT22;70933;44.692;37.776;2023-09-12T00:41:27;25.81;39.64
75799;DHT22;70933;44.692;37.776;2023-09-12T00:42:29;25.79;39.65
75799;DHT22;70933;44.692;37.776;2023-09-12T00:43:30;25.79;39.62
75799;DHT22;70933;44.692;37.776;2023-09-12T00:44:32;25.79;39.57
75799;DHT22;70933;44.692;37.776;2023-09-12T00:45:33;25.79;39.59
75799;DHT22;70933;44.692;37.776;2023-09-12T00:46:36;25.80;39.47
75799;DHT22;70933;44.692;37.776;2023-09-12T00:47:38;25.80;39.48
75799;DHT22;70933;44.692;37.776;2023-09-12T00:48:40;25.77;39.39
75799;DHT22;70933;44.692;37.776;2023-09-12T00:49:41;25.76;39.39
75799;DHT22;70933;44.692;37.776;2023-09-12T00:50:44;25.75;39.39
75799;DHT22;70933;44.692;37.776;2023-09-12T00:51:49;25.74;39.43
75799;DHT22;70933;44.692;37.776;2023-09-12T00:52:53;25.72;39.45
75799;DHT22;70933;44.692;37.776;2023-09-12T00:53:55;25.71;39.48
75799;DHT22;70933;44.692;37.776;2023-09-12T00:54:57;25.69;39.42
75799;DHT22;70933;44.692;37.776;2023-09-12T00:55:59;25.68;39.36
75799;DHT22;70933;44.692;37.776;2023-09-12T00:57:01;25.68;39.41
75799;DHT22;70933;44.692;37.776;2023-09-12T00:58:03;25.68;39.39
75799;DHT22;70933;44.692;37.776;2023-09-12T00:59:05;25.66;39.39
75799;DHT22;70933;44.692;37.776;2023-09-12T01:00:08;25.64;39.36
75799;DHT22;70933;44.692;37.776;2023-09-12T01:01:12;25.65;39.39
75799;DHT22;70933;44.692;37.776;2023-09-12T01:02:14;25.63;39.31
75799;DHT22;70933;44.692;37.776;2023-09-12T01:03:16;25.62;39.38
75799;DHT22;70933;44.692;37.776;2023-09-12T01:04:17;25.62;39.33
75799;DHT22;70933;44.692;37.776;2023-09-12T01:05:20;25.60;39.45
75799;DHT22;70933;44.692;37.776;2023-09-12T01:06:23;25.58;39.49
75799;DHT22;70933;44.692;37.776;2023-09-12T01:07:28;25.60;39.40
75799;DHT22;70933;44.692;37.776;2023-09-12T01:08:29;25.61;39.39
75799;DHT22;70933;44.692;37.776;2023-09-12T01:09:32;25.61;39.30
75799;DHT22;70933;44.692;37.776;2023-09-12T01:10:34;25.61;39.27
75799;DHT22;70933;44.692;37.776;2023-09-12T01:11:35;25.62;39.15
75799;DHT22;70933;44.692;37.776;2023-09-12T01:12:37;25.61;39.07
75799;DHT22;70933;44.692;37.776;2023-09-12T01:13:39;25.61;39.05
75799;DHT22;70933;44.692;37.776;2023-09-12T01:14:41;25.60;39.04
75799;DHT22;70933;44.692;37.776;2023-09-12T01:15:43;25.60;39.03
75799;DHT22;70933;44.692;37.776;2023-09-12T01:16:45;25.58;39.06
75799;DHT22;70933;44.692;37.776;2023-09-12T01:17:46;25.58;39.04
75799;DHT22;70933;44.692;37.776;2023-09-12T01:18:48;25.58;39.05
75799;DHT22;70933;44.692;37.776;2023-09-12T01:19:50;25.57;39.07
75799;DHT22;70933;44.692;37.776;2023-09-12T01:25:27;25.61;38.87
75799;DHT22;70933;44.692;37.776;2023-09-12T01:28:00;25.63;38.78
75799;DHT22;70933;44.692;37.776;2023-09-12T01:29:04;25.64;38.72
75799;DHT22;70933;44.692;37.776;2023-09-12T01:30:08;25.63;38.72
75799;DHT22;70933;44.692;37.776;2023-09-12T01:31:12;25.63;38.65
75799;DHT22;70933;44.692;37.776;2023-09-12T01:32:14;25.63;38.59
75799;DHT22;70933;44.692;37.776;2023-09-12T01:33:17;25.61;38.58
75799;DHT22;70933;44.692;37.776;2023-09-12T01:34:19;25.59;38.56
75799;DHT22;70933;44.692;37.776;2023-09-12T01:35:21;25.58;38.57
75799;DHT22;70933;44.692;37.776;2023-09-12T01:36:22;25.58;38.56
75799;DHT22;70933;44.692;37.776;2023-09-12T01:37:24;25.58;38.55
75799;DHT22;70933;44.692;37.776;2023-09-12T01:38:26;25.59;38.48
75799;DHT22;70933;44.692;37.776;2023-09-12T01:39:28;25.60;38.45
75799;DHT22;70933;44.692;37.776;2023-09-12T01:40:59;25.64;38.36
75799;DHT22;70933;44.692;37.776;2023-09-12T01:42:01;25.64;38.36
75799;DHT22;70933;44.692;37.776;2023-09-12T01:43:04;25.67;38.30
75799;DHT22;70933;44.692;37.776;2023-09-12T01:44:08;25.68;38.20
75799;DHT22;70933;44.692;37.776;2023-09-12T01:45:15;25.71;38.13
75799;DHT22;70933;44.692;37.776;2023-09-12T01:46:18;25.69;38.11
75799;DHT22;70933;44.692;37.776;2023-09-12T01:47:20;25.72;38.04
75799;DHT22;70933;44.692;37.776;2023-09-12T01:48:30;25.74;37.99
75799;DHT22;70933;44.692;37.776;2023-09-12T01:49:35;25.75;37.89
75799;DHT22;70933;44.692;37.776;2023-09-12T01:50:37;25.76;37.88
75799;DHT22;70933;44.692;37.776;2023-09-12T01:51:39;25.77;37.73
75799;DHT22;70933;44.692;37.776;2023-09-12T01:52:40;25.78;37.77
75799;DHT22;70933;44.692;37.776;2023-09-12T01:53:43;25.78;37.77
75799;DHT22;70933;44.692;37.776;2023-09-12T01:54:47;25.81;37.70
75799;DHT22;70933;44.692;37.776;2023-09-12T01:55:50;25.81;37.69
75799;DHT22;70933;44.692;37.776;2023-09-12T01:56:51;25.83;37.71
75799;DHT22;70933;44.692;37.776;2023-09-12T01:57:54;25.82;37.65
75799;DHT22;70933;44.692;37.776;2023-09-12T01:58:56;25.84;37.59
75799;DHT22;70933;44.692;37.776;2023-09-12T01:59:58;25.86;37.52
75799;DHT22;70933;44.692;37.776;2023-09-12T02:00:59;25.84;37.53
75799;DHT22;70933;44.692;37.776;2023-09-12T02:02:01;25.82;37.53
75799;DHT22;70933;44.692;37.776;2023-09-12T02:03:03;25.82;37.53
75799;DHT22;70933;44.692;37.776;2023-09-12T02:04:05;25.80;37.55
75799;DHT22;70933;44.692;37.776;2023-09-12T02:05:16;25.82;37.51
75799;DHT22;70933;44.692;37.776;2023-09-12T02:06:19;25.84;37.47
75799;DHT22;70933;44.692;37.776;2023-09-12T02:07:23;25.83;37.38
75799;DHT22;70933;44.692;37.776;2023-09-12T02:08:25;25.84;37.40
75799;DHT22;70933;44.692;37.776;2023-09-12T02:09:26;25.82;37.37
75799;DHT22;70933;44.692;37.776;2023-09-12T02:10:28;25.83;37.32
75799;DHT22;70933;44.692;37.776;2023-09-12T02:11:30;25.83;37.31
75799;DHT22;70933;44.692;37.776;2023-09-12T02:12:32;25.84;37.29
75799;DHT22;70933;44.692;37.776;2023-09-12T02:13:33;25.83;37.22
75799;DHT22;70933;44.692;37.776;2023-09-12T02:14:35;25.82;37.17
75799;DHT22;70933;44.692;37.776;2023-09-12T02:15:36;25.81;37.20
75799;DHT22;70933;44.692;37.776;2023-09-12T02:16:38;25.80;37.22
75799;DHT22;70933;44.692;37.776;2023-09-12T02:17:39;25.82;37.19
75799;DHT22;70933;44.692;37.776;2023-09-12T02:19:01;25.81;37.16
75799;DHT22;70933;44.692;37.776;2023-09-12T02:20:02;25.81;37.17
75799;DHT22;70933;44.692;37.776;2023-09-12T02:21:06;25.79;37.10
75799;DHT22;70933;44.692;37.776;2023-09-12T02:22:08;25.80;37.08
75799;DHT22;70933;44.692;37.776;2023-09-12T02:23:09;25.80;37.05
75799;DHT22;70933;44.692;37.776;2023-09-12T02:24:11;25.79;37.01
75799;DHT22;70933;44.692;37.776;2023-09-12T02:25:13;25.78;36.99
75799;DHT22;70933;44.692;37.776;2023-09-12T02:26:15;25.79;36.98
75799;DHT22;70933;44.692;37.776;2023-09-12T02:27:16;25.80;36.95
75799;DHT22;70933;44.692;37.776;2023-09-12T02:28:18;25.79;36.90
75799;DHT22;70933;44.692;37.776;2023-09-12T02:29:19;25.80;36.83
75799;DHT22;70933;44.692;37.776;2023-09-12T02:30:21;25.80;36.85
75799;DHT22;70933;44.692;37.776;2023-09-12T02:31:22;25.82;36.79
75799;DHT22;70933;44.692;37.776;2023-09-12T02:32:24;25.80;36.73
75799;DHT22;70933;44.692;37.776;2023-09-12T02:33:25;25.81;36.56
75799;DHT22;70933;44.692;37.776;2023-09-12T02:34:27;25.80;36.57
75799;DHT22;70933;44.692;37.776;2023-09-12T02:35:29;25.79;36.61
75799;DHT22;70933;44.692;37.776;2023-09-12T02:36:31;25.80;36.66
75799;DHT22;70933;44.692;37.776;2023-09-12T02:37:32;25.79;36.59
75799;DHT22;70933;44.692;37.776;2023-09-12T02:38:34;25.80;36.51
75799;DHT22;70933;44.692;37.776;2023-09-12T02:39:36;25.79;36.51
75799;DHT22;70933;44.692;37.776;2023-09-12T02:40:37;25.79;36.43
75799;DHT22;70933;44.692;37.776;2023-09-12T02:41:38;25.80;36.45
75799;DHT22;70933;44.692;37.776;2023-09-12T02:42:40;25.81;36.39
75799;DHT22;70933;44.692;37.776;2023-09-12T02:43:42;25.82;36.26
75799;DHT22;70933;44.692;37.776;2023-09-12T02:44:43;25.82;36.20
75799;DHT22;70933;44.692;37.776;2023-09-12T02:45:45;25.82;36.14
75799;DHT22;70933;44.692;37.776;2023-09-12T02:46:46;25.81;36.14
75799;DHT22;70933;44.692;37.776;2023-09-12T02:47:50;25.82;36.23
75799;DHT22;70933;44.692;37.776;2023-09-12T02:48:51;25.82;36.19
75799;DHT22;70933;44.692;37.776;2023-09-12T02:49:53;25.82;36.04
75799;DHT22;70933;44.692;37.776;2023-09-12T02:50:54;25.80;35.82
75799;DHT22;70933;44.692;37.776;2023-09-12T02:51:56;25.78;35.82
75799;DHT22;70933;44.692;37.776;2023-09-12T02:52:57;25.77;35.93
75799;DHT22;70933;44.692;37.776;2023-09-12T02:53:59;25.76;35.92
75799;DHT22;70933;44.692;37.776;2023-09-12T02:55:01;25.77;35.88
75799;DHT22;70933;44.692;37.776;2023-09-12T02:56:02;25.75;35.70
75799;DHT22;70933;44.692;37.776;2023-09-12T02:57:04;25.76;35.78
75799;DHT22;70933;44.692;37.776;2023-09-12T02:58:05;25.75;35.73
75799;DHT22;70933;44.692;37.776;2023-09-12T02:59:07;25.76;35.67
75799;DHT22;70933;44.692;37.776;2023-09-12T03:00:09;25.75;35.69
75799;DHT22;70933;44.692;37.776;2023-09-12T03:01:17;25.75;35.60
75799;DHT22;70933;44.692;37.776;2023-09-12T03:02:19;25.76;35.58
75799;DHT22;70933;44.692;37.776;2023-09-12T03:03:21;25.75;35.62
75799;DHT22;70933;44.692;37.776;2023-09-12T03:04:24;25.74;34.63
75799;DHT22;70933;44.692;37.776;2023-09-12T03:05:26;25.75;33.88
75799;DHT22;70933;44.692;37.776;2023-09-12T03:06:28;25.71;33.51
75799;DHT22;70933;44.692;37.776;2023-09-12T03:07:31;25.67;32.70
75799;DHT22;70933;44.692;37.776;2023-09-12T03:08:33;25.65;32.02
75799;DHT22;70933;44.692;37.776;2023-09-12T03:09:34;25.63;31.63
75799;DHT22;70933;44.692;37.776;2023-09-12T03:10:36;25.59;31.23
75799;DHT22;70933;44.692;37.776;2023-09-12T03:11:38;25.57;30.87
75799;DHT22;70933;44.692;37.776;2023-09-12T03:12:40;25.53;30.93
75799;DHT22;70933;44.692;37.776;2023-09-12T03:13:42;25.51;32.43
75799;DHT22;70933;44.692;37.776;2023-09-12T03:14:43;25.48;33.40
75799;DHT22;70933;44.692;37.776;2023-09-12T03:15:45;25.49;32.96
75799;DHT22;70933;44.692;37.776;2023-09-12T03:16:46;25.46;32.03
75799;DHT22;70933;44.692;37.776;2023-09-12T03:17:48;25.43;31.55
75799;DHT22;70933;44.692;37.776;2023-09-12T03:18:49;25.40;31.13
75799;DHT22;70933;44.692;37.776;2023-09-12T03:19:51;25.36;30.82
75799;DHT22;70933;44.692;37.776;2023-09-12T03:20:53;25.34;30.48
75799;DHT22;70933;44.692;37.776;2023-09-12T03:21:54;25.30;30.04
75799;DHT22;70933;44.692;37.776;2023-09-12T03:22:56;25.25;29.67
75799;DHT22;70933;44.692;37.776;2023-09-12T03:23:57;25.22;29.26
75799;DHT22;70933;44.692;37.776;2023-09-12T03:24:59;25.21;29.93
75799;DHT22;70933;44.692;37.776;2023-09-12T03:26:06;25.17;30.98
75799;DHT22;70933;44.692;37.776;2023-09-12T03:27:09;25.18;32.30
75799;DHT22;70933;44.692;37.776;2023-09-12T03:28:11;25.15;32.87
75799;DHT22;70933;44.692;37.776;2023-09-12T03:29:12;25.16;33.68
75799;DHT22;70933;44.692;37.776;2023-09-12T03:30:14;25.15;34.34
75799;DHT22;70933;44.692;37.776;2023-09-12T03:31:15;25.17;34.41
75799;DHT22;70933;44.692;37.776;2023-09-12T03:32:17;25.17;32.99
75799;DHT22;70933;44.692;37.776;2023-09-12T03:33:19;25.15;32.62
75799;DHT22;70933;44.692;37.776;2023-09-12T03:34:21;25.13;32.02
75799;DHT22;70933;44.692;37.776;2023-09-12T03:35:22;25.10;31.50
75799;DHT22;70933;44.692;37.776;2023-09-12T03:36:25;25.07;31.18
75799;DHT22;70933;44.692;37.776;2023-09-12T03:37:26;25.04;30.99
75799;DHT22;70933;44.692;37.776;2023-09-12T03:38:30;25.01;30.61
75799;DHT22;70933;44.692;37.776;2023-09-12T03:39:31;24.98;30.27
75799;DHT22;70933;44.692;37.776;2023-09-12T03:40:33;24.95;30.45
75799;DHT22;70933;44.692;37.776;2023-09-12T03:41:35;24.93;31.46
75799;DHT22;70933;44.692;37.776;2023-09-12T03:42:37;24.92;32.64
75799;DHT22;70933;44.692;37.776;2023-09-12T03:43:38;24.91;33.12
75799;DHT22;70933;44.692;37.776;2023-09-12T03:44:40;24.90;33.65
75799;DHT22;70933;44.692;37.776;2023-09-12T03:45:41;24.90;34.19
75799;DHT22;70933;44.692;37.776;2023-09-12T03:46:44;24.92;34.59
75799;DHT22;70933;44.692;37.776;2023-09-12T03:47:45;24.93;35.00
75799;DHT22;70933;44.692;37.776;2023-09-12T03:48:49;24.94;35.15
75799;DHT22;70933;44.692;37.776;2023-09-12T03:49:51;24.95;35.27
75799;DHT22;70933;44.692;37.776;2023-09-12T03:50:52;24.95;33.95
75799;DHT22;70933;44.692;37.776;2023-09-12T03:51:54;24.94;33.42
75799;DHT22;70933;44.692;37.776;2023-09-12T03:52:56;24.92;32.88
75799;DHT22;70933;44.692;37.776;2023-09-12T03:53:57;24.91;32.33
75799;DHT22;70933;44.692;37.776;2023-09-12T03:54:59;24.87;31.99
75799;DHT22;70933;44.692;37.776;2023-09-12T03:56:02;24.85;31.35
75799;DHT22;70933;44.692;37.776;2023-09-12T03:57:04;24.83;30.99
75799;DHT22;70933;44.692;37.776;2023-09-12T03:58:05;24.79;30.86
75799;DHT22;70933;44.692;37.776;2023-09-12T03:59:07;24.77;31.13
75799;DHT22;70933;44.692;37.776;2023-09-12T04:00:09;24.75;32.15
75799;DHT22;70933;44.692;37.776;2023-09-12T04:01:20;24.77;33.46
75799;DHT22;70933;44.692;37.776;2023-09-12T04:02:22;24.76;33.92
75799;DHT22;70933;44.692;37.776;2023-09-12T04:03:24;24.78;34.57
75799;DHT22;70933;44.692;37.776;2023-09-12T04:04:25;24.78;34.95
75799;DHT22;70933;44.692;37.776;2023-09-12T04:05:27;24.78;35.21
75799;DHT22;70933;44.692;37.776;2023-09-12T04:06:29;24.80;35.33
75799;DHT22;70933;44.692;37.776;2023-09-12T04:07:30;24.80;34.67
75799;DHT22;70933;44.692;37.776;2023-09-12T04:08:31;24.79;33.86
75799;DHT22;70933;44.692;37.776;2023-09-12T04:09:34;24.79;33.36
75799;DHT22;70933;44.692;37.776;2023-09-12T04:10:35;24.76;32.70
75799;DHT22;70933;44.692;37.776;2023-09-12T04:11:36;24.75;32.18
75799;DHT22;70933;44.692;37.776;2023-09-12T04:12:38;24.71;31.86
75799;DHT22;70933;44.692;37.776;2023-09-12T04:13:40;24.69;31.45
75799;DHT22;70933;44.692;37.776;2023-09-12T04:14:41;24.66;30.90
75799;DHT22;70933;44.692;37.776;2023-09-12T04:15:43;24.65;30.61
75799;DHT22;70933;44.692;37.776;2023-09-12T04:16:44;24.63;31.63
75799;DHT22;70933;44.692;37.776;2023-09-12T04:17:45;24.63;32.28
75799;DHT22;70933;44.692;37.776;2023-09-12T04:18:47;24.62;33.28
75799;DHT22;70933;44.692;37.776;2023-09-12T04:19:48;24.63;33.89
75799;DHT22;70933;44.692;37.776;2023-09-12T04:20:50;24.64;34.60
75799;DHT22;70933;44.692;37.776;2023-09-12T04:21:51;24.63;34.95
75799;DHT22;70933;44.692;37.776;2023-09-12T04:22:53;24.65;35.28
75799;DHT22;70933;44.692;37.776;2023-09-12T04:23:54;24.65;35.61
75799;DHT22;70933;44.692;37.776;2023-09-12T04:24:56;24.66;35.53
75799;DHT22;70933;44.692;37.776;2023-09-12T04:25:57;24.69;35.82
75799;DHT22;70933;44.692;37.776;2023-09-12T04:27:01;24.71;35.85
75799;DHT22;70933;44.692;37.776;2023-09-12T04:28:04;24.71;36.05
75799;DHT22;70933;44.692;37.776;2023-09-12T04:29:06;24.72;34.86
75799;DHT22;70933;44.692;37.776;2023-09-12T04:30:08;24.73;34.25
75799;DHT22;70933;44.692;37.776;2023-09-12T04:31:10;24.72;33.62
75799;DHT22;70933;44.692;37.776;2023-09-12T04:32:11;24.71;32.79
75799;DHT22;70933;44.692;37.776;2023-09-12T04:33:13;24.68;32.19
75799;DHT22;70933;44.692;37.776;2023-09-12T04:34:14;24.65;31.72
75799;DHT22;70933;44.692;37.776;2023-09-12T04:35:16;24.63;31.28
75799;DHT22;70933;44.692;37.776;2023-09-12T04:36:19;24.61;31.19
75799;DHT22;70933;44.692;37.776;2023-09-12T04:37:21;24.58;31.11
75799;DHT22;70933;44.692;37.776;2023-09-12T04:38:23;24.58;32.38
75799;DHT22;70933;44.692;37.776;2023-09-12T04:39:25;24.59;33.30
75799;DHT22;70933;44.692;37.776;2023-09-12T04:40:27;24.58;33.95
75799;DHT22;70933;44.692;37.776;2023-09-12T04:41:29;24.58;34.65
75799;DHT22;70933;44.692;37.776;2023-09-12T04:42:30;24.58;35.28
75799;DHT22;70933;44.692;37.776;2023-09-12T04:43:32;24.59;35.42
75799;DHT22;70933;44.692;37.776;2023-09-12T04:44:39;24.60;35.66
75799;DHT22;70933;44.692;37.776;2023-09-12T04:45:41;24.61;35.98
75799;DHT22;70933;44.692;37.776;2023-09-12T04:46:42;24.62;35.88
75799;DHT22;70933;44.692;37.776;2023-09-12T04:47:44;24.65;36.01
75799;DHT22;70933;44.692;37.776;2023-09-12T04:48:45;24.66;36.27
75799;DHT22;70933;44.692;37.776;2023-09-12T04:49:47;24.70;36.30
75799;DHT22;70933;44.692;37.776;2023-09-12T04:50:48;24.73;36.33
75799;DHT22;70933;44.692;37.776;2023-09-12T04:51:50;24.74;36.36
75799;DHT22;70933;44.692;37.776;2023-09-12T04:52:52;24.77;36.30
75799;DHT22;70933;44.692;37.776;2023-09-12T04:53:53;24.80;36.17
75799;DHT22;70933;44.692;37.776;2023-09-12T04:54:56;24.82;36.43
75799;DHT22;70933;44.692;37.776;2023-09-12T04:55:58;24.85;36.24
75799;DHT22;70933;44.692;37.776;2023-09-12T04:56:59;24.87;36.29
75799;DHT22;70933;44.692;37.776;2023-09-12T04:58:01;24.89;36.21
75799;DHT22;70933;44.692;37.776;2023-09-12T04:59:03;24.91;36.28
75799;DHT22;70933;44.692;37.776;2023-09-12T05:00:05;24.92;36.35
75799;DHT22;70933;44.692;37.776;2023-09-12T05:01:07;24.97;36.25
75799;DHT22;70933;44.692;37.776;2023-09-12T05:02:09;24.95;36.26
75799;DHT22;70933;44.692;37.776;2023-09-12T05:03:11;25.00;36.24
75799;DHT22;70933;44.692;37.776;2023-09-12T05:04:12;25.01;36.24
75799;DHT22;70933;44.692;37.776;2023-09-12T05:05:14;25.02;36.19
75799;DHT22;70933;44.692;37.776;2023-09-12T05:06:16;25.05;36.18
75799;DHT22;70933;44.692;37.776;2023-09-12T05:07:17;25.06;36.18
75799;DHT22;70933;44.692;37.776;2023-09-12T05:08:19;25.09;36.14
75799;DHT22;70933;44.692;37.776;2023-09-12T05:09:20;25.12;36.14
75799;DHT22;70933;44.692;37.776;2023-09-12T05:10:22;25.13;36.15
75799;DHT22;70933;44.692;37.776;2023-09-12T05:11:24;25.14;36.15
75799;DHT22;70933;44.692;37.776;2023-09-12T05:12:26;25.17;36.12
75799;DHT22;70933;44.692;37.776;2023-09-12T05:13:28;25.18;36.10
75799;DHT22;70933;44.692;37.776;2023-09-12T05:14:29;25.20;36.11
75799;DHT22;70933;44.692;37.776;2023-09-12T05:15:31;25.20;36.01
75799;DHT22;70933;44.692;37.776;2023-09-12T05:16:32;25.22;35.93
75799;DHT22;70933;44.692;37.776;2023-09-12T05:17:34;25.24;35.95
75799;DHT22;70933;44.692;37.776;2023-09-12T05:18:36;25.27;35.89
75799;DHT22;70933;44.692;37.776;2023-09-12T05:19:37;25.28;35.92
75799;DHT22;70933;44.692;37.776;2023-09-12T05:20:39;25.29;35.91
75799;DHT22;70933;44.692;37.776;2023-09-12T05:21:40;25.31;35.79
75799;DHT22;70933;44.692;37.776;2023-09-12T05:22:42;25.31;35.78
75799;DHT22;70933;44.692;37.776;2023-09-12T05:23:43;25.33;35.72
75799;DHT22;70933;44.692;37.776;2023-09-12T05:24:45;25.35;35.70
75799;DHT22;70933;44.692;37.776;2023-09-12T05:25:47;25.36;35.65
75799;DHT22;70933;44.692;37.776;2023-09-12T05:26:48;25.37;35.59
75799;DHT22;70933;44.692;37.776;2023-09-12T05:27:51;25.39;35.60
75799;DHT22;70933;44.692;37.776;2023-09-12T05:28:52;25.40;35.57
75799;DHT22;70933;44.692;37.776;2023-09-12T05:29:54;25.42;35.48
75799;DHT22;70933;44.692;37.776;2023-09-12T05:30:55;25.43;35.44
75799;DHT22;70933;44.692;37.776;2023-09-12T05:31:57;25.44;35.38
75799;DHT22;70933;44.692;37.776;2023-09-12T05:32:59;25.47;35.42
75799;DHT22;70933;44.692;37.776;2023-09-12T05:34:01;25.48;35.39
75799;DHT22;70933;44.692;37.776;2023-09-12T05:35:03;25.49;35.34
75799;DHT22;70933;44.692;37.776;2023-09-12T05:36:05;25.50;35.25
75799;DHT22;70933;44.692;37.776;2023-09-12T05:37:07;25.50;35.29
75799;DHT22;70933;44.692;37.776;2023-09-12T05:38:08;25.52;35.18
75799;DHT22;70933;44.692;37.776;2023-09-12T05:39:10;25.52;35.21
75799;DHT22;70933;44.692;37.776;2023-09-12T05:40:12;25.54;35.16
75799;DHT22;70933;44.692;37.776;2023-09-12T05:41:13;25.58;35.06
75799;DHT22;70933;44.692;37.776;2023-09-12T05:42:15;25.58;34.99
75799;DHT22;70933;44.692;37.776;2023-09-12T05:43:21;25.59;34.99
75799;DHT22;70933;44.692;37.776;2023-09-12T05:44:23;25.60;34.92
75799;DHT22;70933;44.692;37.776;2023-09-12T05:45:25;25.61;34.91
75799;DHT22;70933;44.692;37.776;2023-09-12T05:46:26;25.62;34.89
75799;DHT22;70933;44.692;37.776;2023-09-12T05:47:28;25.62;34.85
75799;DHT22;70933;44.692;37.776;2023-09-12T05:48:29;25.64;34.77
75799;DHT22;70933;44.692;37.776;2023-09-12T05:49:31;25.65;34.79
75799;DHT22;70933;44.692;37.776;2023-09-12T05:50:36;25.67;34.73
75799;DHT22;70933;44.692;37.776;2023-09-12T05:51:38;25.67;34.69
75799;DHT22;70933;44.692;37.776;2023-09-12T05:52:40;25.68;34.67
75799;DHT22;70933;44.692;37.776;2023-09-12T05:53:44;25.71;34.65
75799;DHT22;70933;44.692;37.776;2023-09-12T05:54:45;25.71;34.63
75799;DHT22;70933;44.692;37.776;2023-09-12T05:55:47;25.74;34.57
75799;DHT22;70933;44.692;37.776;2023-09-12T05:56:48;25.72;34.56
75799;DHT22;70933;44.692;37.776;2023-09-12T05:57:50;25.74;34.57
75799;DHT22;70933;44.692;37.776;2023-09-12T05:58:55;25.75;34.48
75799;DHT22;70933;44.692;37.776;2023-09-12T05:59:56;25.75;34.49
75799;DHT22;70933;44.692;37.776;2023-09-12T06:00:58;25.77;34.79
75799;DHT22;70933;44.692;37.776;2023-09-12T06:01:59;25.78;34.78
75799;DHT22;70933;44.692;37.776;2023-09-12T06:03:01;25.79;34.58
75799;DHT22;70933;44.692;37.776;2023-09-12T06:04:03;25.80;34.73
75799;DHT22;70933;44.692;37.776;2023-09-12T06:05:04;25.81;34.94
75799;DHT22;70933;44.692;37.776;2023-09-12T06:06:07;25.82;35.01
75799;DHT22;70933;44.692;37.776;2023-09-12T06:07:09;25.84;35.11
75799;DHT22;70933;44.692;37.776;2023-09-12T06:08:10;25.84;35.15
75799;DHT22;70933;44.692;37.776;2023-09-12T06:09:12;25.87;35.09
75799;DHT22;70933;44.692;37.776;2023-09-12T06:10:13;25.88;35.05
75799;DHT22;70933;44.692;37.776;2023-09-12T06:11:15;25.89;35.02
75799;DHT22;70933;44.692;37.776;2023-09-12T06:12:16;25.91;35.05
75799;DHT22;70933;44.692;37.776;2023-09-12T06:13:18;25.91;35.05
75799;DHT22;70933;44.692;37.776;2023-09-12T06:14:19;25.93;35.00
75799;DHT22;70933;44.692;37.776;2023-09-12T06:15:21;25.94;35.02
75799;DHT22;70933;44.692;37.776;2023-09-12T06:16:22;25.95;35.10
75799;DHT22;70933;44.692;37.776;2023-09-12T06:17:24;25.96;35.13
75799;DHT22;70933;44.692;37.776;2023-09-12T06:18:25;25.98;35.09
75799;DHT22;70933;44.692;37.776;2023-09-12T06:19:29;26.01;35.23
75799;DHT22;70933;44.692;37.776;2023-09-12T06:20:31;26.02;35.23
75799;DHT22;70933;44.692;37.776;2023-09-12T06:21:33;26.01;35.20
75799;DHT22;70933;44.692;37.776;2023-09-12T06:22:35;26.04;35.25
75799;DHT22;70933;44.692;37.776;2023-09-12T06:23:37;26.04;35.36
75799;DHT22;70933;44.692;37.776;2023-09-12T06:24:39;26.05;35.43
75799;DHT22;70933;44.692;37.776;2023-09-12T06:25:40;26.07;35.34
75799;DHT22;70933;44.692;37.776;2023-09-12T06:26:42;26.07;35.33
75799;DHT22;70933;44.692;37.776;2023-09-12T06:27:44;26.08;35.45
75799;DHT22;70933;44.692;37.776;2023-09-12T06:28:46;26.10;35.46
75799;DHT22;70933;44.692;37.776;2023-09-12T06:29:49;26.11;35.44
75799;DHT22;70933;44.692;37.776;2023-09-12T06:30:53;26.15;35.55
75799;DHT22;70933;44.692;37.776;2023-09-12T06:31:57;26.15;35.64